»·PEaware :: JUS326 KPDX-KEUG

JUS326 :: KPDX-KEUG

FLIGHT INFORMATION

Flight Status: Arrived
Operator:
USA Jet
More flights by this operator :: More flights under this callsign
Pilot: Erik S. (3779)
Aircraft: BOEING 737-300
(B733)
More flights by this aircraft type
Origin: KPDX Portland Intl
United States
Destination: KEUG Mahlon Sweet
United States
More flights between these airports :: More routes between these airports
Route: BTG V23 EUG
File this flight plan on PilotEdge
Remarks:
Altitude:
(Current/Filed)
15,000ft
Speed:
(Current/Filed)
400kts
Departed: 21-Dec-17 10:30 AM
Arrived: 21-Dec-17 11:10 AM
Distance/Time
Traveled:
92nm/0:40
Distance/Time
To Go:
Arrived

Flight Plot

Page will automatically refresh every two minutes.

Flight plan parsing failed; only flown route is shown


Map Options




Map Legend


Flown Route
Filed Route
Departure Airport
Arrival Airport
Navaid (VOR, NDB)
Fix

Horizontal Profiles

Position Reports

Time Latitude Longitude Heading Altitude Ground
Speed
21-Dec-17 10:21 45.580848 -122.609467 44 31ft 0kts
21-Dec-17 10:22 45.580848 -122.609467 44 31ft 0kts
21-Dec-17 10:23 45.580848 -122.609467 44 31ft 0kts
21-Dec-17 10:24 45.580848 -122.609467 44 31ft 0kts
21-Dec-17 10:25 45.580848 -122.609467 44 31ft 0kts
21-Dec-17 10:26 45.580848 -122.609467 44 31ft 0kts
21-Dec-17 10:27 45.580811 -122.609520 44 31ft 0kts
21-Dec-17 10:28 45.580366 -122.609912 345 31ft 0kts
21-Dec-17 10:29 45.580196 -122.609746 307 31ft 0kts
21-Dec-17 10:30 45.580220 -122.609810 298 31ft 5kts
21-Dec-17 10:31 45.583037 -122.613736 0 31ft 11kts
21-Dec-17 10:32 45.585829 -122.609983 46 31ft 19kts
21-Dec-17 10:33 45.589540 -122.610421 297 31ft 20kts
21-Dec-17 10:34 45.591910 -122.619334 298 31ft 21kts
21-Dec-17 10:35 45.594821 -122.621682 49 31ft 14kts
21-Dec-17 10:36 45.585255 -122.595952 116 323ft 170kts
21-Dec-17 10:37 45.561301 -122.530557 117 2979ft 212kts
21-Dec-17 10:38 45.530599 -122.452846 129 5457ft 259kts
21-Dec-17 10:39 45.467817 -122.463154 251 8201ft 278kts
21-Dec-17 10:40 45.427373 -122.557983 233 10617ft 311kts
21-Dec-17 10:41 45.370837 -122.657629 235 13067ft 333kts
21-Dec-17 10:42 45.309271 -122.760557 216 14919ft 371kts
21-Dec-17 10:43 45.205517 -122.805879 197 15010ft 402kts
21-Dec-17 10:44 45.099339 -122.847288 197 15026ft 403kts
21-Dec-17 10:45 44.990586 -122.889550 196 14737ft 409kts
21-Dec-17 10:46 44.883043 -122.934187 198 13740ft 399kts
21-Dec-17 10:47 44.777762 -122.975321 194 12747ft 390kts
21-Dec-17 10:48 44.673814 -123.011988 195 11756ft 386kts
21-Dec-17 10:49 44.572041 -123.050772 195 10739ft 383kts
21-Dec-17 10:50 44.476937 -123.085195 182 9909ft 313kts
21-Dec-17 10:51 44.396207 -123.063433 167 8378ft 290kts
21-Dec-17 10:52 44.321461 -123.040511 166 7494ft 262kts
21-Dec-17 10:53 44.251900 -123.019326 167 6041ft 253kts
21-Dec-17 10:54 44.186400 -122.999430 167 5295ft 231kts
21-Dec-17 10:55 44.124206 -122.980591 168 5289ft 228kts
21-Dec-17 10:56 44.062720 -122.962136 168 4605ft 223kts
21-Dec-17 10:57 44.005827 -122.968479 209 4109ft 202kts
21-Dec-17 10:58 43.965678 -123.018170 244 3691ft 195kts
21-Dec-17 10:59 43.953754 -123.089635 279 2762ft 190kts
21-Dec-17 11:00 43.972855 -123.155372 315 2591ft 187kts
21-Dec-17 11:01 44.016477 -123.190748 341 1922ft 182kts
21-Dec-17 11:02 44.063124 -123.201377 358 1829ft 151kts
21-Dec-17 11:03 44.100900 -123.202636 1 780ft 129kts
21-Dec-17 11:04 44.140907 -123.202983 357 2006ft 169kts
21-Dec-17 11:05 44.193772 -123.203709 359 2943ft 202kts
21-Dec-17 11:06 44.248602 -123.184613 21 3023ft 210kts
21-Dec-17 11:07 44.291109 -123.136204 57 3036ft 212kts
21-Dec-17 11:08 44.344316 -123.114395 4 3061ft 210kts
21-Dec-17 11:09 44.385080 -123.151856 275 2895ft 207kts
21-Dec-17 11:10 44.355988 -123.206044 204 2841ft 198kts
21-Dec-17 11:11 44.312343 -123.223081 183 2880ft 198kts
21-Dec-17 11:12 44.251260 -123.221078 178 2801ft 164kts
21-Dec-17 11:13 44.209728 -123.220262 179 1866ft 143kts
21-Dec-17 11:14 44.176964 -123.219786 179 1225ft 141kts
21-Dec-17 11:15 44.131747 -123.219097 179 387ft 137kts
21-Dec-17 11:16 44.120950 -123.217112 89 381ft 15kts

Navigation Log

Ident Type
Flight plan parsing failed, navigation log unavailable